sensor_id;sensor_type;location;lat;lon;timestamp;P1;durP1;ratioP1;P2;durP2;ratioP2
53293;SDS011;39181;53.440;5.644;2024-03-02T00:01:11;3.25;;;1.35;;
53293;SDS011;39181;53.440;5.644;2024-03-02T00:03:37;3.50;;;1.45;;
53293;SDS011;39181;53.440;5.644;2024-03-02T00:06:04;3.75;;;1.45;;
53293;SDS011;39181;53.440;5.644;2024-03-02T00:08:29;3.22;;;1.60;;
53293;SDS011;39181;53.440;5.644;2024-03-02T00:10:58;7.43;;;1.70;;
53293;SDS011;39181;53.440;5.644;2024-03-02T00:13:25;5.38;;;1.80;;
53293;SDS011;39181;53.440;5.644;2024-03-02T00:15:52;6.75;;;1.58;;
53293;SDS011;39181;53.440;5.644;2024-03-02T00:18:31;3.92;;;1.75;;
53293;SDS011;39181;53.440;5.644;2024-03-02T00:20:59;3.72;;;1.75;;
53293;SDS011;39181;53.440;5.644;2024-03-02T00:23:32;7.75;;;1.88;;
53293;SDS011;39181;53.440;5.644;2024-03-02T00:26:00;3.30;;;1.50;;
53293;SDS011;39181;53.440;5.644;2024-03-02T00:28:29;5.07;;;1.85;;
53293;SDS011;39181;53.440;5.644;2024-03-02T00:33:33;3.70;;;1.65;;
53293;SDS011;39181;53.440;5.644;2024-03-02T00:36:04;5.75;;;1.52;;
53293;SDS011;39181;53.440;5.644;2024-03-02T00:38:31;5.43;;;1.58;;
53293;SDS011;39181;53.440;5.644;2024-03-02T00:41:04;7.13;;;1.88;;
53293;SDS011;39181;53.440;5.644;2024-03-02T00:46:17;6.82;;;1.85;;
53293;SDS011;39181;53.440;5.644;2024-03-02T00:48:54;3.58;;;1.55;;
53293;SDS011;39181;53.440;5.644;2024-03-02T00:51:25;3.38;;;1.73;;
53293;SDS011;39181;53.440;5.644;2024-03-02T00:53:55;5.05;;;1.73;;
53293;SDS011;39181;53.440;5.644;2024-03-02T00:56:23;3.88;;;1.48;;
53293;SDS011;39181;53.440;5.644;2024-03-02T00:58:50;5.43;;;1.83;;
53293;SDS011;39181;53.440;5.644;2024-03-02T01:01:16;8.70;;;2.08;;
53293;SDS011;39181;53.440;5.644;2024-03-02T01:03:42;6.18;;;2.00;;
53293;SDS011;39181;53.440;5.644;2024-03-02T01:06:08;4.22;;;2.08;;
53293;SDS011;39181;53.440;5.644;2024-03-02T01:08:37;8.25;;;2.25;;
53293;SDS011;39181;53.440;5.644;2024-03-02T01:11:03;7.15;;;2.00;;
53293;SDS011;39181;53.440;5.644;2024-03-02T01:13:30;5.05;;;2.20;;
53293;SDS011;39181;53.440;5.644;2024-03-02T01:15:56;6.15;;;2.30;;
53293;SDS011;39181;53.440;5.644;2024-03-02T01:18:22;5.82;;;1.88;;
53293;SDS011;39181;53.440;5.644;2024-03-02T01:20:47;5.05;;;2.28;;
53293;SDS011;39181;53.440;5.644;2024-03-02T01:23:16;5.97;;;2.40;;
53293;SDS011;39181;53.440;5.644;2024-03-02T01:25:42;2.88;;;1.83;;
53293;SDS011;39181;53.440;5.644;2024-03-02T01:28:08;4.10;;;1.88;;
53293;SDS011;39181;53.440;5.644;2024-03-02T01:30:33;4.40;;;2.08;;
53293;SDS011;39181;53.440;5.644;2024-03-02T01:33:00;4.43;;;2.40;;
53293;SDS011;39181;53.440;5.644;2024-03-02T01:35:27;9.23;;;2.55;;
53293;SDS011;39181;53.440;5.644;2024-03-02T01:37:52;5.18;;;2.20;;
53293;SDS011;39181;53.440;5.644;2024-03-02T01:40:18;2.90;;;2.08;;
53293;SDS011;39181;53.440;5.644;2024-03-02T01:42:44;4.40;;;2.13;;
53293;SDS011;39181;53.440;5.644;2024-03-02T01:45:10;2.92;;;1.80;;
53293;SDS011;39181;53.440;5.644;2024-03-02T01:47:35;5.30;;;2.28;;
53293;SDS011;39181;53.440;5.644;2024-03-02T01:50:01;2.83;;;1.92;;
53293;SDS011;39181;53.440;5.644;2024-03-02T01:52:27;3.55;;;1.92;;
53293;SDS011;39181;53.440;5.644;2024-03-02T01:54:53;3.90;;;1.75;;
53293;SDS011;39181;53.440;5.644;2024-03-02T01:57:18;5.55;;;2.20;;
53293;SDS011;39181;53.440;5.644;2024-03-02T01:59:44;5.72;;;2.30;;
53293;SDS011;39181;53.440;5.644;2024-03-02T02:02:12;4.20;;;2.50;;
53293;SDS011;39181;53.440;5.644;2024-03-02T02:04:38;2.83;;;1.55;;
53293;SDS011;39181;53.440;5.644;2024-03-02T02:07:04;5.32;;;2.10;;
53293;SDS011;39181;53.440;5.644;2024-03-02T02:09:30;5.40;;;1.73;;
53293;SDS011;39181;53.440;5.644;2024-03-02T02:11:55;4.30;;;2.22;;
53293;SDS011;39181;53.440;5.644;2024-03-02T02:14:21;4.72;;;1.80;;
53293;SDS011;39181;53.440;5.644;2024-03-02T02:16:46;5.88;;;1.60;;
53293;SDS011;39181;53.440;5.644;2024-03-02T02:19:12;6.75;;;1.67;;
53293;SDS011;39181;53.440;5.644;2024-03-02T02:21:38;3.30;;;1.40;;
53293;SDS011;39181;53.440;5.644;2024-03-02T02:24:06;6.57;;;1.58;;
53293;SDS011;39181;53.440;5.644;2024-03-02T02:26:32;4.82;;;1.65;;
53293;SDS011;39181;53.440;5.644;2024-03-02T02:28:57;4.15;;;1.35;;
53293;SDS011;39181;53.440;5.644;2024-03-02T02:31:23;4.00;;;1.55;;
53293;SDS011;39181;53.440;5.644;2024-03-02T02:33:49;4.28;;;1.55;;
53293;SDS011;39181;53.440;5.644;2024-03-02T02:36:14;3.75;;;1.50;;
53293;SDS011;39181;53.440;5.644;2024-03-02T02:38:42;6.32;;;1.60;;
53293;SDS011;39181;53.440;5.644;2024-03-02T02:41:13;2.75;;;1.20;;
53293;SDS011;39181;53.440;5.644;2024-03-02T02:43:38;8.35;;;1.85;;
53293;SDS011;39181;53.440;5.644;2024-03-02T02:46:05;3.83;;;1.58;;
53293;SDS011;39181;53.440;5.644;2024-03-02T02:48:30;4.30;;;1.58;;
53293;SDS011;39181;53.440;5.644;2024-03-02T02:50:56;4.63;;;1.38;;
53293;SDS011;39181;53.440;5.644;2024-03-02T02:53:22;3.80;;;1.48;;
53293;SDS011;39181;53.440;5.644;2024-03-02T02:55:47;5.53;;;1.42;;
53293;SDS011;39181;53.440;5.644;2024-03-02T02:58:13;3.85;;;1.48;;
53293;SDS011;39181;53.440;5.644;2024-03-02T03:00:39;5.88;;;1.45;;
53293;SDS011;39181;53.440;5.644;2024-03-02T03:03:05;4.43;;;1.20;;
53293;SDS011;39181;53.440;5.644;2024-03-02T03:05:31;4.55;;;1.20;;
53293;SDS011;39181;53.440;5.644;2024-03-02T03:07:56;3.97;;;1.40;;
53293;SDS011;39181;53.440;5.644;2024-03-02T03:10:22;5.53;;;1.33;;
53293;SDS011;39181;53.440;5.644;2024-03-02T03:12:48;2.92;;;1.10;;
53293;SDS011;39181;53.440;5.644;2024-03-02T03:15:14;7.40;;;1.65;;
53293;SDS011;39181;53.440;5.644;2024-03-02T03:17:41;4.95;;;2.17;;
53293;SDS011;39181;53.440;5.644;2024-03-02T03:20:07;3.08;;;1.55;;
53293;SDS011;39181;53.440;5.644;2024-03-02T03:22:36;5.20;;;1.63;;
53293;SDS011;39181;53.440;5.644;2024-03-02T03:25:05;4.90;;;1.25;;
53293;SDS011;39181;53.440;5.644;2024-03-02T03:27:33;4.97;;;1.40;;
53293;SDS011;39181;53.440;5.644;2024-03-02T03:29:58;5.65;;;1.60;;
53293;SDS011;39181;53.440;5.644;2024-03-02T03:32:24;2.50;;;1.50;;
53293;SDS011;39181;53.440;5.644;2024-03-02T03:34:50;2.80;;;1.17;;
53293;SDS011;39181;53.440;5.644;2024-03-02T03:37:15;6.93;;;1.40;;
53293;SDS011;39181;53.440;5.644;2024-03-02T03:39:41;7.15;;;1.65;;
53293;SDS011;39181;53.440;5.644;2024-03-02T03:42:06;5.72;;;1.20;;
53293;SDS011;39181;53.440;5.644;2024-03-02T03:44:32;5.28;;;1.40;;
53293;SDS011;39181;53.440;5.644;2024-03-02T03:46:58;2.70;;;1.20;;
53293;SDS011;39181;53.440;5.644;2024-03-02T03:49:24;4.10;;;1.60;;
53293;SDS011;39181;53.440;5.644;2024-03-02T03:51:50;3.58;;;1.10;;
53293;SDS011;39181;53.440;5.644;2024-03-02T03:54:15;2.50;;;0.60;;
53293;SDS011;39181;53.440;5.644;2024-03-02T03:56:41;2.42;;;1.02;;
53293;SDS011;39181;53.440;5.644;2024-03-02T03:59:06;1.58;;;0.43;;
53293;SDS011;39181;53.440;5.644;2024-03-02T04:01:32;1.80;;;0.52;;
53293;SDS011;39181;53.440;5.644;2024-03-02T04:03:58;4.70;;;0.70;;
53293;SDS011;39181;53.440;5.644;2024-03-02T04:06:24;1.90;;;0.40;;
53293;SDS011;39181;53.440;5.644;2024-03-02T04:08:50;1.35;;;0.40;;
53293;SDS011;39181;53.440;5.644;2024-03-02T04:11:16;2.05;;;0.60;;
53293;SDS011;39181;53.440;5.644;2024-03-02T04:13:41;1.65;;;0.70;;
53293;SDS011;39181;53.440;5.644;2024-03-02T04:16:07;2.38;;;0.40;;
53293;SDS011;39181;53.440;5.644;2024-03-02T04:18:32;0.63;;;0.20;;
53293;SDS011;39181;53.440;5.644;2024-03-02T04:20:58;0.90;;;0.40;;
53293;SDS011;39181;53.440;5.644;2024-03-02T04:23:24;1.48;;;0.70;;
53293;SDS011;39181;53.440;5.644;2024-03-02T04:25:51;1.63;;;0.60;;
53293;SDS011;39181;53.440;5.644;2024-03-02T04:28:16;1.00;;;0.40;;
53293;SDS011;39181;53.440;5.644;2024-03-02T04:30:42;2.35;;;0.47;;
53293;SDS011;39181;53.440;5.644;2024-03-02T04:33:07;1.13;;;0.40;;
53293;SDS011;39181;53.440;5.644;2024-03-02T04:35:35;1.63;;;0.30;;
53293;SDS011;39181;53.440;5.644;2024-03-02T04:38:01;1.83;;;0.40;;
53293;SDS011;39181;53.440;5.644;2024-03-02T04:40:26;0.80;;;0.43;;
53293;SDS011;39181;53.440;5.644;2024-03-02T04:42:52;1.40;;;0.52;;
53293;SDS011;39181;53.440;5.644;2024-03-02T04:45:17;3.80;;;0.35;;
53293;SDS011;39181;53.440;5.644;2024-03-02T04:47:43;1.55;;;0.40;;
53293;SDS011;39181;53.440;5.644;2024-03-02T04:50:09;1.75;;;0.28;;
53293;SDS011;39181;53.440;5.644;2024-03-02T04:52:35;1.67;;;0.40;;
53293;SDS011;39181;53.440;5.644;2024-03-02T04:55:01;1.77;;;0.52;;
53293;SDS011;39181;53.440;5.644;2024-03-02T04:57:45;0.93;;;0.20;;
53293;SDS011;39181;53.440;5.644;2024-03-02T05:00:12;1.15;;;0.30;;
53293;SDS011;39181;53.440;5.644;2024-03-02T05:02:38;1.77;;;0.40;;
53293;SDS011;39181;53.440;5.644;2024-03-02T05:05:04;1.00;;;0.25;;
53293;SDS011;39181;53.440;5.644;2024-03-02T05:07:29;3.20;;;0.40;;
53293;SDS011;39181;53.440;5.644;2024-03-02T05:09:55;0.40;;;0.35;;
53293;SDS011;39181;53.440;5.644;2024-03-02T05:12:21;2.00;;;0.32;;
53293;SDS011;39181;53.440;5.644;2024-03-02T05:15:05;1.95;;;0.20;;
53293;SDS011;39181;53.440;5.644;2024-03-02T05:17:32;1.13;;;0.40;;
53293;SDS011;39181;53.440;5.644;2024-03-02T05:19:57;1.45;;;0.50;;
53293;SDS011;39181;53.440;5.644;2024-03-02T05:22:23;1.20;;;0.20;;
53293;SDS011;39181;53.440;5.644;2024-03-02T05:24:49;0.77;;;0.30;;
53293;SDS011;39181;53.440;5.644;2024-03-02T05:27:14;0.38;;;0.30;;
53293;SDS011;39181;53.440;5.644;2024-03-02T05:29:40;2.17;;;0.40;;
53293;SDS011;39181;53.440;5.644;2024-03-02T05:32:06;1.65;;;0.40;;
53293;SDS011;39181;53.440;5.644;2024-03-02T05:34:31;1.25;;;0.30;;
53293;SDS011;39181;53.440;5.644;2024-03-02T05:36:59;3.42;;;0.47;;
53293;SDS011;39181;53.440;5.644;2024-03-02T05:39:25;0.22;;;0.20;;
53293;SDS011;39181;53.440;5.644;2024-03-02T05:41:50;1.30;;;0.43;;
53293;SDS011;39181;53.440;5.644;2024-03-02T05:44:16;1.77;;;0.30;;
53293;SDS011;39181;53.440;5.644;2024-03-02T05:46:43;1.70;;;0.20;;
53293;SDS011;39181;53.440;5.644;2024-03-02T05:49:09;0.35;;;0.20;;
53293;SDS011;39181;53.440;5.644;2024-03-02T05:51:35;0.70;;;0.30;;
53293;SDS011;39181;53.440;5.644;2024-03-02T05:54:01;1.00;;;0.35;;
53293;SDS011;39181;53.440;5.644;2024-03-02T05:56:26;1.83;;;0.40;;
53293;SDS011;39181;53.440;5.644;2024-03-02T05:58:52;2.00;;;0.40;;
53293;SDS011;39181;53.440;5.644;2024-03-02T06:01:32;2.58;;;0.30;;
53293;SDS011;39181;53.440;5.644;2024-03-02T06:03:58;2.65;;;0.60;;
53293;SDS011;39181;53.440;5.644;2024-03-02T06:06:24;0.75;;;0.45;;
53293;SDS011;39181;53.440;5.644;2024-03-02T06:08:50;3.00;;;0.40;;
53293;SDS011;39181;53.440;5.644;2024-03-02T06:11:16;2.53;;;0.50;;
53293;SDS011;39181;53.440;5.644;2024-03-02T06:13:42;1.20;;;0.30;;
53293;SDS011;39181;53.440;5.644;2024-03-02T06:16:07;0.95;;;0.40;;
53293;SDS011;39181;53.440;5.644;2024-03-02T06:18:33;1.00;;;0.40;;
53293;SDS011;39181;53.440;5.644;2024-03-02T06:20:59;2.60;;;1.02;;
53293;SDS011;39181;53.440;5.644;2024-03-02T06:23:26;1.23;;;0.30;;
53293;SDS011;39181;53.440;5.644;2024-03-02T06:25:52;0.63;;;0.47;;
53293;SDS011;39181;53.440;5.644;2024-03-02T06:28:17;0.85;;;0.40;;
53293;SDS011;39181;53.440;5.644;2024-03-02T06:30:43;1.30;;;0.30;;
53293;SDS011;39181;53.440;5.644;2024-03-02T06:33:09;1.13;;;0.35;;
53293;SDS011;39181;53.440;5.644;2024-03-02T06:35:34;1.02;;;0.40;;
53293;SDS011;39181;53.440;5.644;2024-03-02T06:38:00;1.33;;;0.57;;
53293;SDS011;39181;53.440;5.644;2024-03-02T06:40:26;0.95;;;0.30;;
53293;SDS011;39181;53.440;5.644;2024-03-02T06:42:52;2.50;;;0.30;;
53293;SDS011;39181;53.440;5.644;2024-03-02T06:45:17;1.10;;;0.40;;
53293;SDS011;39181;53.440;5.644;2024-03-02T06:47:43;6.40;;;0.52;;
53293;SDS011;39181;53.440;5.644;2024-03-02T06:50:09;1.23;;;0.47;;
53293;SDS011;39181;53.440;5.644;2024-03-02T06:52:34;1.60;;;0.50;;
53293;SDS011;39181;53.440;5.644;2024-03-02T06:55:01;0.88;;;0.50;;
53293;SDS011;39181;53.440;5.644;2024-03-02T06:57:27;1.00;;;0.50;;
53293;SDS011;39181;53.440;5.644;2024-03-02T06:59:52;2.33;;;1.00;;
53293;SDS011;39181;53.440;5.644;2024-03-02T07:02:20;0.80;;;0.60;;
53293;SDS011;39181;53.440;5.644;2024-03-02T07:04:46;0.85;;;0.85;;
53293;SDS011;39181;53.440;5.644;2024-03-02T07:07:12;2.13;;;0.80;;
53293;SDS011;39181;53.440;5.644;2024-03-02T07:09:37;1.10;;;0.85;;
53293;SDS011;39181;53.440;5.644;2024-03-02T07:12:03;1.10;;;0.80;;
53293;SDS011;39181;53.440;5.644;2024-03-02T07:14:29;3.20;;;1.00;;
53293;SDS011;39181;53.440;5.644;2024-03-02T07:17:13;1.00;;;0.52;;
53293;SDS011;39181;53.440;5.644;2024-03-02T07:19:39;4.07;;;0.63;;
53293;SDS011;39181;53.440;5.644;2024-03-02T07:22:08;2.15;;;0.60;;
53293;SDS011;39181;53.440;5.644;2024-03-02T07:24:40;0.73;;;0.45;;
53293;SDS011;39181;53.440;5.644;2024-03-02T07:29:32;4.75;;;0.60;;
53293;SDS011;39181;53.440;5.644;2024-03-02T07:31:57;1.40;;;0.40;;
53293;SDS011;39181;53.440;5.644;2024-03-02T07:34:23;1.83;;;0.80;;
53293;SDS011;39181;53.440;5.644;2024-03-02T07:36:49;2.10;;;0.50;;
53293;SDS011;39181;53.440;5.644;2024-03-02T07:39:14;4.45;;;0.80;;
53293;SDS011;39181;53.440;5.644;2024-03-02T07:41:40;1.10;;;0.50;;
53293;SDS011;39181;53.440;5.644;2024-03-02T07:44:06;3.35;;;0.63;;
53293;SDS011;39181;53.440;5.644;2024-03-02T07:46:31;2.13;;;0.63;;
53293;SDS011;39181;53.440;5.644;2024-03-02T07:48:57;1.83;;;0.75;;
53293;SDS011;39181;53.440;5.644;2024-03-02T07:51:22;3.08;;;1.02;;
53293;SDS011;39181;53.440;5.644;2024-03-02T07:53:48;0.88;;;0.68;;
53293;SDS011;39181;53.440;5.644;2024-03-02T07:56:14;1.48;;;1.05;;
53293;SDS011;39181;53.440;5.644;2024-03-02T07:58:46;3.13;;;1.25;;
53293;SDS011;39181;53.440;5.644;2024-03-02T08:01:16;3.53;;;1.05;;
53293;SDS011;39181;53.440;5.644;2024-03-02T08:03:42;2.47;;;1.20;;
53293;SDS011;39181;53.440;5.644;2024-03-02T08:06:13;2.95;;;1.10;;
53293;SDS011;39181;53.440;5.644;2024-03-02T08:08:40;1.23;;;0.80;;
53293;SDS011;39181;53.440;5.644;2024-03-02T08:11:05;2.50;;;1.58;;
53293;SDS011;39181;53.440;5.644;2024-03-02T08:13:31;2.78;;;1.40;;
53293;SDS011;39181;53.440;5.644;2024-03-02T08:15:57;4.10;;;0.93;;
53293;SDS011;39181;53.440;5.644;2024-03-02T08:18:22;3.38;;;1.00;;
53293;SDS011;39181;53.440;5.644;2024-03-02T08:20:48;2.22;;;1.00;;
53293;SDS011;39181;53.440;5.644;2024-03-02T08:23:14;4.68;;;1.05;;
53293;SDS011;39181;53.440;5.644;2024-03-02T08:25:40;5.38;;;1.48;;
53293;SDS011;39181;53.440;5.644;2024-03-02T08:28:05;2.78;;;1.50;;
53293;SDS011;39181;53.440;5.644;2024-03-02T08:30:31;1.48;;;0.90;;
53293;SDS011;39181;53.440;5.644;2024-03-02T08:32:56;2.90;;;0.82;;
53293;SDS011;39181;53.440;5.644;2024-03-02T08:35:22;5.43;;;1.00;;
53293;SDS011;39181;53.440;5.644;2024-03-02T08:37:51;2.47;;;0.82;;
53293;SDS011;39181;53.440;5.644;2024-03-02T08:40:16;3.10;;;0.80;;
53293;SDS011;39181;53.440;5.644;2024-03-02T08:42:42;1.00;;;0.80;;
53293;SDS011;39181;53.440;5.644;2024-03-02T08:45:08;1.85;;;0.70;;
53293;SDS011;39181;53.440;5.644;2024-03-02T08:47:33;4.10;;;0.73;;
53293;SDS011;39181;53.440;5.644;2024-03-02T08:49:59;4.00;;;0.80;;
53293;SDS011;39181;53.440;5.644;2024-03-02T08:52:25;2.22;;;0.70;;
53293;SDS011;39181;53.440;5.644;2024-03-02T08:54:51;1.88;;;0.60;;
53293;SDS011;39181;53.440;5.644;2024-03-02T08:57:17;3.53;;;0.85;;
53293;SDS011;39181;53.440;5.644;2024-03-02T08:59:43;4.55;;;0.50;;
53293;SDS011;39181;53.440;5.644;2024-03-02T09:02:09;3.45;;;0.88;;
53293;SDS011;39181;53.440;5.644;2024-03-02T09:04:37;1.88;;;0.50;;
53293;SDS011;39181;53.440;5.644;2024-03-02T09:07:03;2.95;;;1.25;;
53293;SDS011;39181;53.440;5.644;2024-03-02T09:09:28;1.38;;;0.60;;
53293;SDS011;39181;53.440;5.644;2024-03-02T09:11:56;3.13;;;1.02;;
53293;SDS011;39181;53.440;5.644;2024-03-02T09:14:23;2.83;;;0.70;;
53293;SDS011;39181;53.440;5.644;2024-03-02T09:16:48;4.90;;;0.88;;
53293;SDS011;39181;53.440;5.644;2024-03-02T09:19:14;1.60;;;0.68;;
53293;SDS011;39181;53.440;5.644;2024-03-02T09:21:41;2.70;;;1.20;;
53293;SDS011;39181;53.440;5.644;2024-03-02T09:24:07;2.20;;;0.90;;
53293;SDS011;39181;53.440;5.644;2024-03-02T09:26:32;7.45;;;0.80;;
53293;SDS011;39181;53.440;5.644;2024-03-02T09:28:58;2.95;;;0.60;;
53293;SDS011;39181;53.440;5.644;2024-03-02T09:31:23;3.72;;;0.60;;
53293;SDS011;39181;53.440;5.644;2024-03-02T09:33:49;2.58;;;0.50;;
53293;SDS011;39181;53.440;5.644;2024-03-02T09:36:18;4.18;;;0.60;;
53293;SDS011;39181;53.440;5.644;2024-03-02T09:38:47;2.30;;;0.70;;
53293;SDS011;39181;53.440;5.644;2024-03-02T09:41:14;3.03;;;0.70;;
53293;SDS011;39181;53.440;5.644;2024-03-02T09:43:40;2.83;;;0.70;;
53293;SDS011;39181;53.440;5.644;2024-03-02T09:46:06;4.90;;;0.70;;
53293;SDS011;39181;53.440;5.644;2024-03-02T09:48:34;2.50;;;0.30;;
53293;SDS011;39181;53.440;5.644;2024-03-02T09:51:00;4.72;;;1.23;;
53293;SDS011;39181;53.440;5.644;2024-03-02T09:53:29;2.00;;;0.50;;
53293;SDS011;39181;53.440;5.644;2024-03-02T09:55:57;2.63;;;0.47;;
53293;SDS011;39181;53.440;5.644;2024-03-02T09:58:23;3.47;;;0.65;;
53293;SDS011;39181;53.440;5.644;2024-03-02T10:00:49;5.05;;;0.93;;
53293;SDS011;39181;53.440;5.644;2024-03-02T10:03:15;3.22;;;0.57;;
53293;SDS011;39181;53.440;5.644;2024-03-02T10:05:42;2.65;;;0.50;;
53293;SDS011;39181;53.440;5.644;2024-03-02T10:08:07;3.75;;;0.80;;
53293;SDS011;39181;53.440;5.644;2024-03-02T10:10:36;4.55;;;0.50;;
53293;SDS011;39181;53.440;5.644;2024-03-02T10:13:07;5.47;;;0.52;;
53293;SDS011;39181;53.440;5.644;2024-03-02T10:15:33;4.50;;;0.82;;
53293;SDS011;39181;53.440;5.644;2024-03-02T10:17:59;4.93;;;1.40;;
53293;SDS011;39181;53.440;5.644;2024-03-02T10:20:25;2.03;;;1.15;;
53293;SDS011;39181;53.440;5.644;2024-03-02T10:22:54;3.63;;;0.55;;
53293;SDS011;39181;53.440;5.644;2024-03-02T10:25:32;3.65;;;0.70;;
53293;SDS011;39181;53.440;5.644;2024-03-02T10:27:58;5.65;;;0.50;;
53293;SDS011;39181;53.440;5.644;2024-03-02T10:30:25;3.55;;;0.60;;
53293;SDS011;39181;53.440;5.644;2024-03-02T10:32:52;2.75;;;0.52;;
53293;SDS011;39181;53.440;5.644;2024-03-02T10:35:20;3.53;;;0.65;;
53293;SDS011;39181;53.440;5.644;2024-03-02T10:37:47;2.50;;;0.77;;
53293;SDS011;39181;53.440;5.644;2024-03-02T10:40:13;1.35;;;0.40;;
53293;SDS011;39181;53.440;5.644;2024-03-02T10:42:39;4.00;;;0.63;;
53293;SDS011;39181;53.440;5.644;2024-03-02T10:45:07;4.22;;;0.85;;
53293;SDS011;39181;53.440;5.644;2024-03-02T10:47:35;2.85;;;0.55;;
53293;SDS011;39181;53.440;5.644;2024-03-02T10:50:02;2.58;;;0.60;;
53293;SDS011;39181;53.440;5.644;2024-03-02T10:52:33;2.83;;;0.55;;
53293;SDS011;39181;53.440;5.644;2024-03-02T10:55:02;3.60;;;0.57;;
53293;SDS011;39181;53.440;5.644;2024-03-02T10:57:33;2.85;;;0.90;;
53293;SDS011;39181;53.440;5.644;2024-03-02T11:00:19;4.20;;;0.70;;
53293;SDS011;39181;53.440;5.644;2024-03-02T11:02:50;3.13;;;0.55;;
53293;SDS011;39181;53.440;5.644;2024-03-02T11:05:26;3.30;;;0.50;;
53293;SDS011;39181;53.440;5.644;2024-03-02T11:07:53;2.47;;;0.70;;
53293;SDS011;39181;53.440;5.644;2024-03-02T11:10:25;2.50;;;0.70;;
53293;SDS011;39181;53.440;5.644;2024-03-02T11:13:02;2.95;;;0.40;;
53293;SDS011;39181;53.440;5.644;2024-03-02T11:15:30;1.70;;;0.50;;
53293;SDS011;39181;53.440;5.644;2024-03-02T11:17:59;4.55;;;0.82;;
53293;SDS011;39181;53.440;5.644;2024-03-02T11:20:25;2.35;;;0.60;;
53293;SDS011;39181;53.440;5.644;2024-03-02T11:22:51;2.50;;;0.45;;
53293;SDS011;39181;53.440;5.644;2024-03-02T11:25:24;1.40;;;0.60;;
53293;SDS011;39181;53.440;5.644;2024-03-02T11:32:57;2.97;;;0.50;;
53293;SDS011;39181;53.440;5.644;2024-03-02T11:35:24;5.95;;;0.75;;
53293;SDS011;39181;53.440;5.644;2024-03-02T11:37:56;4.00;;;0.50;;
53293;SDS011;39181;53.440;5.644;2024-03-02T11:40:27;3.22;;;0.50;;
53293;SDS011;39181;53.440;5.644;2024-03-02T11:42:53;5.00;;;0.70;;
53293;SDS011;39181;53.440;5.644;2024-03-02T11:45:22;2.38;;;0.60;;
53293;SDS011;39181;53.440;5.644;2024-03-02T11:47:50;4.00;;;0.35;;
53293;SDS011;39181;53.440;5.644;2024-03-02T11:50:15;3.88;;;0.80;;
53293;SDS011;39181;53.440;5.644;2024-03-02T11:53:00;5.38;;;0.50;;
53293;SDS011;39181;53.440;5.644;2024-03-02T11:55:27;4.85;;;0.65;;
53293;SDS011;39181;53.440;5.644;2024-03-02T11:57:55;2.70;;;0.40;;
53293;SDS011;39181;53.440;5.644;2024-03-02T12:00:21;1.85;;;0.52;;
53293;SDS011;39181;53.440;5.644;2024-03-02T12:02:47;2.92;;;0.52;;
53293;SDS011;39181;53.440;5.644;2024-03-02T12:05:24;2.58;;;0.65;;
53293;SDS011;39181;53.440;5.644;2024-03-02T12:07:55;2.35;;;0.70;;
53293;SDS011;39181;53.440;5.644;2024-03-02T12:10:28;2.28;;;0.50;;
53293;SDS011;39181;53.440;5.644;2024-03-02T12:13:04;1.20;;;0.43;;
53293;SDS011;39181;53.440;5.644;2024-03-02T12:15:33;3.20;;;0.60;;
53293;SDS011;39181;53.440;5.644;2024-03-02T12:18:00;1.95;;;0.50;;
53293;SDS011;39181;53.440;5.644;2024-03-02T12:20:27;3.25;;;0.60;;
53293;SDS011;39181;53.440;5.644;2024-03-02T12:22:55;3.17;;;0.70;;
53293;SDS011;39181;53.440;5.644;2024-03-02T12:25:23;1.80;;;0.30;;
53293;SDS011;39181;53.440;5.644;2024-03-02T12:27:56;3.88;;;0.47;;
53293;SDS011;39181;53.440;5.644;2024-03-02T12:30:23;3.50;;;0.57;;
53293;SDS011;39181;53.440;5.644;2024-03-02T12:32:49;2.88;;;0.55;;
53293;SDS011;39181;53.440;5.644;2024-03-02T12:35:15;2.78;;;0.88;;
53293;SDS011;39181;53.440;5.644;2024-03-02T12:37:46;1.88;;;0.40;;
53293;SDS011;39181;53.440;5.644;2024-03-02T12:40:12;4.13;;;1.48;;
53293;SDS011;39181;53.440;5.644;2024-03-02T12:42:39;3.00;;;0.35;;
53293;SDS011;39181;53.440;5.644;2024-03-02T12:45:07;3.88;;;0.50;;
53293;SDS011;39181;53.440;5.644;2024-03-02T12:47:36;2.67;;;0.38;;
53293;SDS011;39181;53.440;5.644;2024-03-02T12:50:03;3.33;;;0.60;;
53293;SDS011;39181;53.440;5.644;2024-03-02T12:52:29;3.92;;;0.60;;
53293;SDS011;39181;53.440;5.644;2024-03-02T12:54:57;3.08;;;0.50;;
53293;SDS011;39181;53.440;5.644;2024-03-02T12:57:25;2.42;;;0.55;;
53293;SDS011;39181;53.440;5.644;2024-03-02T12:59:52;5.10;;;0.85;;
53293;SDS011;39181;53.440;5.644;2024-03-02T13:02:22;2.38;;;0.50;;
53293;SDS011;39181;53.440;5.644;2024-03-02T13:04:54;4.25;;;0.70;;
53293;SDS011;39181;53.440;5.644;2024-03-02T13:07:23;3.30;;;0.57;;
53293;SDS011;39181;53.440;5.644;2024-03-02T13:09:49;2.55;;;0.57;;
53293;SDS011;39181;53.440;5.644;2024-03-02T13:12:15;1.52;;;0.40;;
53293;SDS011;39181;53.440;5.644;2024-03-02T13:14:42;1.73;;;0.35;;
53293;SDS011;39181;53.440;5.644;2024-03-02T13:17:08;2.38;;;0.52;;
53293;SDS011;39181;53.440;5.644;2024-03-02T13:19:34;4.38;;;0.45;;
53293;SDS011;39181;53.440;5.644;2024-03-02T13:22:00;1.60;;;0.30;;
53293;SDS011;39181;53.440;5.644;2024-03-02T13:24:28;2.80;;;0.50;;
53293;SDS011;39181;53.440;5.644;2024-03-02T13:26:54;4.15;;;0.60;;
53293;SDS011;39181;53.440;5.644;2024-03-02T13:29:22;4.00;;;0.70;;
53293;SDS011;39181;53.440;5.644;2024-03-02T13:31:49;2.83;;;0.68;;
53293;SDS011;39181;53.440;5.644;2024-03-02T13:34:15;1.60;;;0.50;;
53293;SDS011;39181;53.440;5.644;2024-03-02T13:36:40;3.90;;;0.77;;
53293;SDS011;39181;53.440;5.644;2024-03-02T13:39:06;4.20;;;0.45;;
53293;SDS011;39181;53.440;5.644;2024-03-02T13:41:34;2.92;;;0.75;;
53293;SDS011;39181;53.440;5.644;2024-03-02T13:44:00;2.97;;;0.68;;
53293;SDS011;39181;53.440;5.644;2024-03-02T13:46:26;4.05;;;0.80;;
53293;SDS011;39181;53.440;5.644;2024-03-02T13:48:52;4.95;;;0.80;;
53293;SDS011;39181;53.440;5.644;2024-03-02T13:51:19;3.30;;;0.70;;
53293;SDS011;39181;53.440;5.644;2024-03-02T13:53:44;2.33;;;0.57;;
53293;SDS011;39181;53.440;5.644;2024-03-02T13:56:10;3.60;;;0.60;;
53293;SDS011;39181;53.440;5.644;2024-03-02T13:58:36;6.38;;;1.30;;
53293;SDS011;39181;53.440;5.644;2024-03-02T14:01:02;1.67;;;0.70;;
53293;SDS011;39181;53.440;5.644;2024-03-02T14:03:29;3.10;;;1.40;;
53293;SDS011;39181;53.440;5.644;2024-03-02T14:05:56;4.20;;;0.70;;
53293;SDS011;39181;53.440;5.644;2024-03-02T14:08:22;4.43;;;0.73;;
53293;SDS011;39181;53.440;5.644;2024-03-02T14:10:48;3.90;;;0.80;;
53293;SDS011;39181;53.440;5.644;2024-03-02T14:13:13;3.75;;;0.85;;
53293;SDS011;39181;53.440;5.644;2024-03-02T14:15:40;3.58;;;0.80;;
53293;SDS011;39181;53.440;5.644;2024-03-02T14:18:06;1.88;;;0.80;;
53293;SDS011;39181;53.440;5.644;2024-03-02T14:20:32;3.97;;;0.82;;
53293;SDS011;39181;53.440;5.644;2024-03-02T14:22:58;5.50;;;0.95;;
53293;SDS011;39181;53.440;5.644;2024-03-02T14:25:28;1.65;;;0.40;;
53293;SDS011;39181;53.440;5.644;2024-03-02T14:27:58;6.18;;;0.70;;
53293;SDS011;39181;53.440;5.644;2024-03-02T14:30:24;4.38;;;0.98;;
53293;SDS011;39181;53.440;5.644;2024-03-02T14:32:49;2.13;;;0.60;;
53293;SDS011;39181;53.440;5.644;2024-03-02T14:35:16;2.60;;;0.40;;
53293;SDS011;39181;53.440;5.644;2024-03-02T14:37:41;4.43;;;0.63;;
53293;SDS011;39181;53.440;5.644;2024-03-02T14:40:07;2.72;;;0.50;;
53293;SDS011;39181;53.440;5.644;2024-03-02T14:42:34;3.03;;;0.55;;
53293;SDS011;39181;53.440;5.644;2024-03-02T14:45:00;3.15;;;0.60;;
53293;SDS011;39181;53.440;5.644;2024-03-02T14:47:28;3.13;;;0.50;;
53293;SDS011;39181;53.440;5.644;2024-03-02T14:49:56;5.45;;;1.08;;
53293;SDS011;39181;53.440;5.644;2024-03-02T14:52:21;3.22;;;0.50;;
53293;SDS011;39181;53.440;5.644;2024-03-02T14:54:47;3.05;;;0.60;;
53293;SDS011;39181;53.440;5.644;2024-03-02T14:57:13;2.13;;;0.30;;
53293;SDS011;39181;53.440;5.644;2024-03-02T14:59:38;3.17;;;0.52;;